Rose Hill, Illinois
Current Conditions -  °F | °C
As of 3:35 PM on Thursday 23 Oct 2014 (Local Time) from K1H2 Reporting Station
Clear Clear  
Wind Chill: 61°   Ceiling: Unl
Heat Index: 61°   Visibility: 10mi
Dew Point: 40°   Wind: 5mph
Humidity: 46%   Direction: 210°SSW
Pressure: 30.14"   Gusts: NA
Location:  39.1196°N, 88.1333°W
Report Text: K1H2 232035Z AUTO 21004KT 10SM CLR 16/04 A3014 RMK AO2 T01600043
Loading
Personal Weather Stations






























Interactive Weather Map
Tropical Storm Tracking
New forecast layout! Learn more

10-Day Weather Forecast

Advertisements
Track Severe Weather on mobile